sensor_id;sensor_type;location;lat;lon;timestamp;pressure;altitude;pressure_sealevel;temperature;humidity
74790;BME280;63318;52.406;13.416;2024-01-06T00:00:05;100197.98;;;1.16;90.43
74790;BME280;63318;52.406;13.416;2024-01-06T00:02:34;100196.45;;;1.15;90.52
74790;BME280;63318;52.406;13.416;2024-01-06T00:05:03;100194.63;;;1.15;90.48
74790;BME280;63318;52.406;13.416;2024-01-06T00:07:32;100193.63;;;1.16;90.83
74790;BME280;63318;52.406;13.416;2024-01-06T00:10:00;100196.02;;;1.16;90.82
74790;BME280;63318;52.406;13.416;2024-01-06T00:12:29;100196.69;;;1.16;90.84
74790;BME280;63318;52.406;13.416;2024-01-06T00:14:57;100193.49;;;1.15;90.56
74790;BME280;63318;52.406;13.416;2024-01-06T00:17:26;100194.16;;;1.16;90.59
74790;BME280;63318;52.406;13.416;2024-01-06T00:19:55;100189.71;;;1.15;90.41
74790;BME280;63318;52.406;13.416;2024-01-06T00:22:23;100194.17;;;1.15;90.47
74790;BME280;63318;52.406;13.416;2024-01-06T00:24:52;100195.31;;;1.14;90.69
74790;BME280;63318;52.406;13.416;2024-01-06T00:27:21;100198.80;;;1.14;90.87
74790;BME280;63318;52.406;13.416;2024-01-06T00:29:49;100198.86;;;1.14;91.15
74790;BME280;63318;52.406;13.416;2024-01-06T00:32:18;100197.39;;;1.14;90.68
74790;BME280;63318;52.406;13.416;2024-01-06T00:34:46;100194.65;;;1.12;90.78
74790;BME280;63318;52.406;13.416;2024-01-06T00:37:15;100199.70;;;1.13;90.78
74790;BME280;63318;52.406;13.416;2024-01-06T00:39:45;100200.29;;;1.13;90.70
74790;BME280;63318;52.406;13.416;2024-01-06T00:42:14;100199.71;;;1.12;90.69
74790;BME280;63318;52.406;13.416;2024-01-06T00:44:44;100199.00;;;1.11;90.54
74790;BME280;63318;52.406;13.416;2024-01-06T00:47:12;100203.75;;;1.11;90.65
74790;BME280;63318;52.406;13.416;2024-01-06T00:49:40;100205.43;;;1.11;90.59
74790;BME280;63318;52.406;13.416;2024-01-06T00:52:09;100208.06;;;1.11;90.47
74790;BME280;63318;52.406;13.416;2024-01-06T00:54:38;100210.20;;;1.10;90.48
74790;BME280;63318;52.406;13.416;2024-01-06T00:57:06;100218.46;;;1.10;90.70
74790;BME280;63318;52.406;13.416;2024-01-06T00:59:35;100222.07;;;1.09;90.60
74790;BME280;63318;52.406;13.416;2024-01-06T01:02:04;100223.40;;;1.08;90.28
74790;BME280;63318;52.406;13.416;2024-01-06T01:04:33;100222.23;;;1.07;90.70
74790;BME280;63318;52.406;13.416;2024-01-06T01:07:01;100218.99;;;1.07;90.47
74790;BME280;63318;52.406;13.416;2024-01-06T01:09:31;100226.14;;;1.07;90.69
74790;BME280;63318;52.406;13.416;2024-01-06T01:11:59;100228.45;;;1.07;90.60
74790;BME280;63318;52.406;13.416;2024-01-06T01:14:28;100225.54;;;1.07;90.75
74790;BME280;63318;52.406;13.416;2024-01-06T01:16:56;100236.11;;;1.07;90.68
74790;BME280;63318;52.406;13.416;2024-01-06T01:19:25;100239.27;;;1.07;90.87
74790;BME280;63318;52.406;13.416;2024-01-06T01:21:54;100241.96;;;1.07;90.85
74790;BME280;63318;52.406;13.416;2024-01-06T01:24:22;100239.90;;;1.08;90.57
74790;BME280;63318;52.406;13.416;2024-01-06T01:26:51;100237.33;;;1.08;90.77
74790;BME280;63318;52.406;13.416;2024-01-06T01:29:20;100238.67;;;1.07;90.64
74790;BME280;63318;52.406;13.416;2024-01-06T01:31:49;100238.52;;;1.07;90.69
74790;BME280;63318;52.406;13.416;2024-01-06T01:34:17;100237.04;;;1.07;90.86
74790;BME280;63318;52.406;13.416;2024-01-06T01:36:46;100237.70;;;1.07;90.88
74790;BME280;63318;52.406;13.416;2024-01-06T01:39:14;100233.20;;;1.07;90.92
74790;BME280;63318;52.406;13.416;2024-01-06T01:41:43;100236.16;;;1.07;90.65
74790;BME280;63318;52.406;13.416;2024-01-06T01:44:11;100237.64;;;1.07;90.94
74790;BME280;63318;52.406;13.416;2024-01-06T01:46:40;100242.05;;;1.06;90.82
74790;BME280;63318;52.406;13.416;2024-01-06T01:49:10;100240.59;;;1.07;90.59
74790;BME280;63318;52.406;13.416;2024-01-06T01:51:38;100241.34;;;1.06;90.65
74790;BME280;63318;52.406;13.416;2024-01-06T01:54:08;100237.13;;;1.06;90.86
74790;BME280;63318;52.406;13.416;2024-01-06T01:56:38;100238.43;;;1.06;90.78
74790;BME280;63318;52.406;13.416;2024-01-06T01:59:11;100246.00;;;1.06;90.82
74790;BME280;63318;52.406;13.416;2024-01-06T02:01:43;100247.10;;;1.06;90.99
74790;BME280;63318;52.406;13.416;2024-01-06T02:04:12;100245.75;;;1.06;90.74
74790;BME280;63318;52.406;13.416;2024-01-06T02:06:41;100251.02;;;1.06;90.79
74790;BME280;63318;52.406;13.416;2024-01-06T02:09:10;100256.45;;;1.07;90.71
74790;BME280;63318;52.406;13.416;2024-01-06T02:11:39;100260.65;;;1.06;90.70
74790;BME280;63318;52.406;13.416;2024-01-06T02:14:08;100261.77;;;1.05;90.82
74790;BME280;63318;52.406;13.416;2024-01-06T02:16:37;100265.95;;;1.05;90.71
74790;BME280;63318;52.406;13.416;2024-01-06T02:19:06;100270.81;;;1.04;90.87
74790;BME280;63318;52.406;13.416;2024-01-06T02:21:37;100272.66;;;1.04;90.67
74790;BME280;63318;52.406;13.416;2024-01-06T02:24:09;100268.17;;;1.04;90.56
74790;BME280;63318;52.406;13.416;2024-01-06T02:26:38;100268.49;;;1.03;90.63
74790;BME280;63318;52.406;13.416;2024-01-06T02:29:07;100268.20;;;1.02;90.78
74790;BME280;63318;52.406;13.416;2024-01-06T02:31:35;100268.21;;;1.02;90.54
74790;BME280;63318;52.406;13.416;2024-01-06T02:34:04;100267.88;;;1.02;90.87
74790;BME280;63318;52.406;13.416;2024-01-06T02:36:32;100273.83;;;1.01;90.96
74790;BME280;63318;52.406;13.416;2024-01-06T02:39:01;100270.96;;;1.01;90.39
74790;BME280;63318;52.406;13.416;2024-01-06T02:41:30;100277.73;;;1.01;90.61
74790;BME280;63318;52.406;13.416;2024-01-06T02:44:00;100281.05;;;1.00;90.69
74790;BME280;63318;52.406;13.416;2024-01-06T02:46:28;100279.89;;;1.00;90.63
74790;BME280;63318;52.406;13.416;2024-01-06T02:48:57;100280.56;;;1.00;90.60
74790;BME280;63318;52.406;13.416;2024-01-06T02:51:26;100281.87;;;1.00;90.74
74790;BME280;63318;52.406;13.416;2024-01-06T02:53:54;100288.64;;;1.00;90.71
74790;BME280;63318;52.406;13.416;2024-01-06T02:56:23;100284.54;;;0.99;90.65
74790;BME280;63318;52.406;13.416;2024-01-06T02:58:51;100288.39;;;0.99;90.62
74790;BME280;63318;52.406;13.416;2024-01-06T03:01:20;100287.17;;;0.99;90.64
74790;BME280;63318;52.406;13.416;2024-01-06T03:03:49;100287.89;;;0.99;90.46
74790;BME280;63318;52.406;13.416;2024-01-06T03:06:18;100284.06;;;0.99;90.71
74790;BME280;63318;52.406;13.416;2024-01-06T03:08:47;100284.75;;;0.98;90.72
74790;BME280;63318;52.406;13.416;2024-01-06T03:11:15;100289.55;;;0.97;90.91
74790;BME280;63318;52.406;13.416;2024-01-06T03:13:44;100299.96;;;0.98;90.96
74790;BME280;63318;52.406;13.416;2024-01-06T03:16:14;100303.62;;;0.98;90.97
74790;BME280;63318;52.406;13.416;2024-01-06T03:18:43;100298.36;;;0.98;90.74
74790;BME280;63318;52.406;13.416;2024-01-06T03:21:21;100295.14;;;0.97;90.61
74790;BME280;63318;52.406;13.416;2024-01-06T03:23:51;100297.55;;;0.96;90.66
74790;BME280;63318;52.406;13.416;2024-01-06T03:26:20;100299.44;;;0.96;90.95
74790;BME280;63318;52.406;13.416;2024-01-06T03:28:51;100298.89;;;0.96;90.92
74790;BME280;63318;52.406;13.416;2024-01-06T03:31:21;100299.23;;;0.96;90.83
74790;BME280;63318;52.406;13.416;2024-01-06T03:33:49;100303.93;;;0.96;90.87
74790;BME280;63318;52.406;13.416;2024-01-06T03:36:18;100303.23;;;0.96;90.79
74790;BME280;63318;52.406;13.416;2024-01-06T03:38:47;100307.36;;;0.96;90.61
74790;BME280;63318;52.406;13.416;2024-01-06T03:41:16;100305.92;;;0.96;90.81
74790;BME280;63318;52.406;13.416;2024-01-06T03:43:44;100312.43;;;0.97;90.78
74790;BME280;63318;52.406;13.416;2024-01-06T03:46:14;100314.24;;;0.97;90.78
74790;BME280;63318;52.406;13.416;2024-01-06T03:48:42;100316.85;;;0.96;90.57
74790;BME280;63318;52.406;13.416;2024-01-06T03:51:12;100320.13;;;0.96;90.87
74790;BME280;63318;52.406;13.416;2024-01-06T03:53:41;100323.07;;;0.96;90.94
74790;BME280;63318;52.406;13.416;2024-01-06T03:56:12;100327.88;;;0.96;90.84
74790;BME280;63318;52.406;13.416;2024-01-06T03:58:41;100331.37;;;0.96;90.67
74790;BME280;63318;52.406;13.416;2024-01-06T04:01:11;100329.45;;;0.95;90.78
74790;BME280;63318;52.406;13.416;2024-01-06T04:03:39;100334.36;;;0.95;90.52
74790;BME280;63318;52.406;13.416;2024-01-06T04:06:11;100334.91;;;0.95;91.00
74790;BME280;63318;52.406;13.416;2024-01-06T04:08:40;100338.50;;;0.94;90.56
74790;BME280;63318;52.406;13.416;2024-01-06T04:11:09;100339.83;;;0.94;90.60
74790;BME280;63318;52.406;13.416;2024-01-06T04:13:37;100338.73;;;0.94;90.55
74790;BME280;63318;52.406;13.416;2024-01-06T04:16:07;100342.23;;;0.94;90.78
74790;BME280;63318;52.406;13.416;2024-01-06T04:18:35;100345.02;;;0.93;90.70
74790;BME280;63318;52.406;13.416;2024-01-06T04:21:04;100344.19;;;0.93;91.04
74790;BME280;63318;52.406;13.416;2024-01-06T04:23:33;100343.77;;;0.92;90.68
74790;BME280;63318;52.406;13.416;2024-01-06T04:26:01;100343.44;;;0.90;90.74
74790;BME280;63318;52.406;13.416;2024-01-06T04:28:31;100347.73;;;0.89;90.77
74790;BME280;63318;52.406;13.416;2024-01-06T04:31:00;100352.84;;;0.88;90.95
74790;BME280;63318;52.406;13.416;2024-01-06T04:33:29;100355.33;;;0.88;90.65
74790;BME280;63318;52.406;13.416;2024-01-06T04:35:57;100352.80;;;0.87;90.69
74790;BME280;63318;52.406;13.416;2024-01-06T04:38:26;100353.27;;;0.87;90.55
74790;BME280;63318;52.406;13.416;2024-01-06T04:40:55;100357.17;;;0.86;90.77
74790;BME280;63318;52.406;13.416;2024-01-06T04:43:24;100356.17;;;0.85;90.79
74790;BME280;63318;52.406;13.416;2024-01-06T04:45:52;100360.55;;;0.85;90.73
74790;BME280;63318;52.406;13.416;2024-01-06T04:48:21;100361.60;;;0.84;90.69
74790;BME280;63318;52.406;13.416;2024-01-06T04:50:51;100358.04;;;0.84;90.59
74790;BME280;63318;52.406;13.416;2024-01-06T04:53:21;100362.84;;;0.83;91.02
74790;BME280;63318;52.406;13.416;2024-01-06T04:55:49;100363.02;;;0.84;90.73
74790;BME280;63318;52.406;13.416;2024-01-06T04:58:20;100366.38;;;0.85;90.92
74790;BME280;63318;52.406;13.416;2024-01-06T05:00:49;100369.22;;;0.85;90.95
74790;BME280;63318;52.406;13.416;2024-01-06T05:03:21;100378.02;;;0.86;90.79
74790;BME280;63318;52.406;13.416;2024-01-06T05:05:52;100381.14;;;0.87;91.05
74790;BME280;63318;52.406;13.416;2024-01-06T05:08:23;100383.71;;;0.87;90.69
74790;BME280;63318;52.406;13.416;2024-01-06T05:10:57;100383.80;;;0.87;90.87
74790;BME280;63318;52.406;13.416;2024-01-06T05:13:25;100383.30;;;0.88;90.72
74790;BME280;63318;52.406;13.416;2024-01-06T05:15:56;100378.77;;;0.88;90.80
74790;BME280;63318;52.406;13.416;2024-01-06T05:18:25;100380.22;;;0.88;90.90
74790;BME280;63318;52.406;13.416;2024-01-06T05:20:54;100380.69;;;0.88;90.69
74790;BME280;63318;52.406;13.416;2024-01-06T05:23:23;100382.91;;;0.87;90.92
74790;BME280;63318;52.406;13.416;2024-01-06T05:25:52;100381.98;;;0.87;90.91
74790;BME280;63318;52.406;13.416;2024-01-06T05:28:21;100386.03;;;0.87;91.06
74790;BME280;63318;52.406;13.416;2024-01-06T05:30:49;100391.83;;;0.87;90.84
74790;BME280;63318;52.406;13.416;2024-01-06T05:33:18;100398.39;;;0.87;90.57
74790;BME280;63318;52.406;13.416;2024-01-06T05:35:47;100400.88;;;0.88;90.94
74790;BME280;63318;52.406;13.416;2024-01-06T05:38:16;100395.41;;;0.88;90.89
74790;BME280;63318;52.406;13.416;2024-01-06T05:40:45;100400.33;;;0.88;90.71
74790;BME280;63318;52.406;13.416;2024-01-06T05:43:14;100404.20;;;0.87;90.69
74790;BME280;63318;52.406;13.416;2024-01-06T05:45:44;100404.08;;;0.87;90.77
74790;BME280;63318;52.406;13.416;2024-01-06T05:48:13;100408.48;;;0.87;90.84
74790;BME280;63318;52.406;13.416;2024-01-06T05:50:41;100415.73;;;0.87;90.79
74790;BME280;63318;52.406;13.416;2024-01-06T05:53:13;100422.79;;;0.88;90.65
74790;BME280;63318;52.406;13.416;2024-01-06T05:55:42;100425.77;;;0.87;90.73
74790;BME280;63318;52.406;13.416;2024-01-06T05:58:10;100425.31;;;0.86;90.65
74790;BME280;63318;52.406;13.416;2024-01-06T06:00:39;100429.10;;;0.87;90.73
74790;BME280;63318;52.406;13.416;2024-01-06T06:03:07;100428.86;;;0.86;90.82
74790;BME280;63318;52.406;13.416;2024-01-06T06:05:37;100433.70;;;0.85;90.75
74790;BME280;63318;52.406;13.416;2024-01-06T06:08:06;100438.45;;;0.85;90.75
74790;BME280;63318;52.406;13.416;2024-01-06T06:10:34;100440.76;;;0.85;90.83
74790;BME280;63318;52.406;13.416;2024-01-06T06:13:03;100441.40;;;0.85;90.69
74790;BME280;63318;52.406;13.416;2024-01-06T06:15:32;100446.61;;;0.85;90.78
74790;BME280;63318;52.406;13.416;2024-01-06T06:18:00;100452.88;;;0.85;90.68
74790;BME280;63318;52.406;13.416;2024-01-06T06:20:29;100457.50;;;0.84;90.84
74790;BME280;63318;52.406;13.416;2024-01-06T06:22:58;100461.89;;;0.84;90.68
74790;BME280;63318;52.406;13.416;2024-01-06T06:25:26;100473.70;;;0.85;90.69
74790;BME280;63318;52.406;13.416;2024-01-06T06:27:55;100481.69;;;0.85;90.78
74790;BME280;63318;52.406;13.416;2024-01-06T06:30:23;100486.02;;;0.85;90.91
74790;BME280;63318;52.406;13.416;2024-01-06T06:32:52;100487.91;;;0.86;90.94
74790;BME280;63318;52.406;13.416;2024-01-06T06:35:20;100486.44;;;0.86;90.67
74790;BME280;63318;52.406;13.416;2024-01-06T06:37:49;100487.75;;;0.86;90.67
74790;BME280;63318;52.406;13.416;2024-01-06T06:40:17;100487.95;;;0.86;90.48
74790;BME280;63318;52.406;13.416;2024-01-06T06:42:48;100494.67;;;0.84;90.80
74790;BME280;63318;52.406;13.416;2024-01-06T06:45:18;100496.29;;;0.83;90.78
74790;BME280;63318;52.406;13.416;2024-01-06T06:47:47;100500.95;;;0.83;90.69
74790;BME280;63318;52.406;13.416;2024-01-06T06:50:16;100502.23;;;0.83;90.61
74790;BME280;63318;52.406;13.416;2024-01-06T06:52:46;100506.77;;;0.83;90.81
74790;BME280;63318;52.406;13.416;2024-01-06T06:55:15;100513.33;;;0.83;90.61
74790;BME280;63318;52.406;13.416;2024-01-06T06:57:45;100521.28;;;0.83;91.07
74790;BME280;63318;52.406;13.416;2024-01-06T07:00:15;100528.51;;;0.83;90.91
74790;BME280;63318;52.406;13.416;2024-01-06T07:02:43;100536.83;;;0.84;90.89
74790;BME280;63318;52.406;13.416;2024-01-06T07:05:12;100546.46;;;0.84;90.69
74790;BME280;63318;52.406;13.416;2024-01-06T07:07:41;100554.21;;;0.84;90.59
74790;BME280;63318;52.406;13.416;2024-01-06T07:10:10;100556.61;;;0.83;90.55
74790;BME280;63318;52.406;13.416;2024-01-06T07:12:39;100552.23;;;0.84;90.79
74790;BME280;63318;52.406;13.416;2024-01-06T07:15:08;100557.36;;;0.83;90.55
74790;BME280;63318;52.406;13.416;2024-01-06T07:17:37;100559.25;;;0.83;90.89
74790;BME280;63318;52.406;13.416;2024-01-06T07:20:11;100565.27;;;0.83;90.67
74790;BME280;63318;52.406;13.416;2024-01-06T07:22:40;100566.03;;;0.81;90.70
74790;BME280;63318;52.406;13.416;2024-01-06T07:25:09;100568.14;;;0.80;90.40
74790;BME280;63318;52.406;13.416;2024-01-06T07:27:38;100578.36;;;0.79;90.69
74790;BME280;63318;52.406;13.416;2024-01-06T07:30:08;100585.67;;;0.77;90.82
74790;BME280;63318;52.406;13.416;2024-01-06T07:32:37;100589.52;;;0.76;90.63
74790;BME280;63318;52.406;13.416;2024-01-06T07:35:08;100589.48;;;0.75;90.62
74790;BME280;63318;52.406;13.416;2024-01-06T07:37:36;100586.02;;;0.74;90.62
74790;BME280;63318;52.406;13.416;2024-01-06T07:40:07;100590.98;;;0.74;90.61
74790;BME280;63318;52.406;13.416;2024-01-06T07:42:36;100595.90;;;0.72;90.59
74790;BME280;63318;52.406;13.416;2024-01-06T07:45:08;100595.91;;;0.71;90.65
74790;BME280;63318;52.406;13.416;2024-01-06T07:47:37;100597.34;;;0.71;90.48
74790;BME280;63318;52.406;13.416;2024-01-06T07:50:07;100600.38;;;0.70;90.67
74790;BME280;63318;52.406;13.416;2024-01-06T07:52:38;100604.92;;;0.70;90.76
74790;BME280;63318;52.406;13.416;2024-01-06T07:55:09;100609.38;;;0.69;90.91
74790;BME280;63318;52.406;13.416;2024-01-06T07:57:37;100614.14;;;0.69;90.60
74790;BME280;63318;52.406;13.416;2024-01-06T08:00:09;100616.70;;;0.69;90.56
74790;BME280;63318;52.406;13.416;2024-01-06T08:02:37;100624.30;;;0.68;90.76
74790;BME280;63318;52.406;13.416;2024-01-06T08:05:06;100633.18;;;0.66;90.63
74790;BME280;63318;52.406;13.416;2024-01-06T08:07:37;100639.80;;;0.64;90.73
74790;BME280;63318;52.406;13.416;2024-01-06T08:10:08;100641.42;;;0.64;90.74
74790;BME280;63318;52.406;13.416;2024-01-06T08:12:36;100648.04;;;0.64;91.04
74790;BME280;63318;52.406;13.416;2024-01-06T08:15:07;100650.85;;;0.65;90.96
74790;BME280;63318;52.406;13.416;2024-01-06T08:17:36;100654.80;;;0.64;90.80
74790;BME280;63318;52.406;13.416;2024-01-06T08:20:07;100654.54;;;0.63;91.03
74790;BME280;63318;52.406;13.416;2024-01-06T08:22:36;100649.41;;;0.62;90.83
74790;BME280;63318;52.406;13.416;2024-01-06T08:25:05;100653.53;;;0.61;90.79
74790;BME280;63318;52.406;13.416;2024-01-06T08:27:35;100653.42;;;0.59;90.71
74790;BME280;63318;52.406;13.416;2024-01-06T08:30:04;100659.13;;;0.59;90.79
74790;BME280;63318;52.406;13.416;2024-01-06T08:32:33;100664.39;;;0.58;90.94
74790;BME280;63318;52.406;13.416;2024-01-06T08:35:02;100670.15;;;0.57;90.91
74790;BME280;63318;52.406;13.416;2024-01-06T08:37:31;100669.81;;;0.57;90.94
74790;BME280;63318;52.406;13.416;2024-01-06T08:40:00;100670.32;;;0.56;90.94
74790;BME280;63318;52.406;13.416;2024-01-06T08:42:29;100672.00;;;0.56;90.77
74790;BME280;63318;52.406;13.416;2024-01-06T08:45:00;100677.55;;;0.55;90.96
74790;BME280;63318;52.406;13.416;2024-01-06T08:47:30;100681.96;;;0.55;91.02
74790;BME280;63318;52.406;13.416;2024-01-06T08:49:58;100688.44;;;0.54;91.22
74790;BME280;63318;52.406;13.416;2024-01-06T08:52:27;100688.43;;;0.54;90.88
74790;BME280;63318;52.406;13.416;2024-01-06T08:54:55;100692.35;;;0.53;90.75
74790;BME280;63318;52.406;13.416;2024-01-06T08:57:24;100694.33;;;0.52;90.94
74790;BME280;63318;52.406;13.416;2024-01-06T08:59:53;100692.52;;;0.51;90.68
74790;BME280;63318;52.406;13.416;2024-01-06T09:02:21;100696.23;;;0.50;90.85
74790;BME280;63318;52.406;13.416;2024-01-06T09:04:54;100702.40;;;0.50;90.88
74790;BME280;63318;52.406;13.416;2024-01-06T09:07:23;100711.68;;;0.52;91.20
74790;BME280;63318;52.406;13.416;2024-01-06T09:09:54;100717.45;;;0.54;90.98
74790;BME280;63318;52.406;13.416;2024-01-06T09:12:23;100722.58;;;0.55;90.99
74790;BME280;63318;52.406;13.416;2024-01-06T09:14:51;100726.73;;;0.55;91.35
74790;BME280;63318;52.406;13.416;2024-01-06T09:17:20;100732.84;;;0.54;91.12
74790;BME280;63318;52.406;13.416;2024-01-06T09:19:49;100741.11;;;0.54;90.99
74790;BME280;63318;52.406;13.416;2024-01-06T09:22:20;100737.38;;;0.53;90.87
74790;BME280;63318;52.406;13.416;2024-01-06T09:25:01;100737.30;;;0.51;90.73
74790;BME280;63318;52.406;13.416;2024-01-06T09:27:32;100739.54;;;0.49;91.02
74790;BME280;63318;52.406;13.416;2024-01-06T09:30:01;100746.91;;;0.49;90.99
74790;BME280;63318;52.406;13.416;2024-01-06T09:32:31;100749.73;;;0.48;90.79
74790;BME280;63318;52.406;13.416;2024-01-06T09:34:59;100750.91;;;0.47;91.24
74790;BME280;63318;52.406;13.416;2024-01-06T09:37:28;100751.73;;;0.46;90.68
74790;BME280;63318;52.406;13.416;2024-01-06T09:39:58;100757.16;;;0.44;90.97
74790;BME280;63318;52.406;13.416;2024-01-06T09:42:27;100759.85;;;0.43;91.03
74790;BME280;63318;52.406;13.416;2024-01-06T09:44:55;100757.50;;;0.42;90.98
74790;BME280;63318;52.406;13.416;2024-01-06T09:47:24;100764.44;;;0.41;91.02
74790;BME280;63318;52.406;13.416;2024-01-06T09:49:57;100770.07;;;0.39;90.90
74790;BME280;63318;52.406;13.416;2024-01-06T09:52:28;100776.36;;;0.37;90.85
74790;BME280;63318;52.406;13.416;2024-01-06T09:55:01;100780.73;;;0.35;91.11
74790;BME280;63318;52.406;13.416;2024-01-06T09:57:31;100778.33;;;0.34;90.85
74790;BME280;63318;52.406;13.416;2024-01-06T10:00:00;100783.39;;;0.34;90.97
74790;BME280;63318;52.406;13.416;2024-01-06T10:02:29;100784.44;;;0.35;91.00
74790;BME280;63318;52.406;13.416;2024-01-06T10:04:57;100782.75;;;0.33;90.75
74790;BME280;63318;52.406;13.416;2024-01-06T10:07:27;100795.68;;;0.32;90.85
74790;BME280;63318;52.406;13.416;2024-01-06T10:09:57;100802.33;;;0.31;91.03
74790;BME280;63318;52.406;13.416;2024-01-06T10:12:26;100807.30;;;0.31;90.76
74790;BME280;63318;52.406;13.416;2024-01-06T10:14:55;100809.96;;;0.30;90.72
74790;BME280;63318;52.406;13.416;2024-01-06T10:17:24;100810.77;;;0.30;90.76
74790;BME280;63318;52.406;13.416;2024-01-06T10:19:53;100804.80;;;0.29;90.64
74790;BME280;63318;52.406;13.416;2024-01-06T10:22:23;100799.29;;;0.28;91.11
74790;BME280;63318;52.406;13.416;2024-01-06T10:24:51;100799.34;;;0.29;90.84
74790;BME280;63318;52.406;13.416;2024-01-06T10:27:20;100795.75;;;0.29;90.85
74790;BME280;63318;52.406;13.416;2024-01-06T10:29:50;100793.58;;;0.26;90.93
74790;BME280;63318;52.406;13.416;2024-01-06T10:32:19;100795.95;;;0.22;90.76
74790;BME280;63318;52.406;13.416;2024-01-06T10:34:48;100803.89;;;0.20;90.93
74790;BME280;63318;52.406;13.416;2024-01-06T10:37:18;100804.42;;;0.18;90.62
74790;BME280;63318;52.406;13.416;2024-01-06T10:39:47;100805.48;;;0.18;90.87
74790;BME280;63318;52.406;13.416;2024-01-06T10:42:16;100806.02;;;0.18;90.93
74790;BME280;63318;52.406;13.416;2024-01-06T10:44:46;100808.92;;;0.16;90.43
74790;BME280;63318;52.406;13.416;2024-01-06T10:47:16;100808.28;;;0.16;91.01
74790;BME280;63318;52.406;13.416;2024-01-06T10:49:46;100810.28;;;0.14;90.79
74790;BME280;63318;52.406;13.416;2024-01-06T10:52:15;100806.80;;;0.15;90.67
74790;BME280;63318;52.406;13.416;2024-01-06T10:54:44;100806.50;;;0.14;90.79
74790;BME280;63318;52.406;13.416;2024-01-06T10:57:14;100808.73;;;0.14;90.52
74790;BME280;63318;52.406;13.416;2024-01-06T10:59:43;100812.17;;;0.14;91.01
74790;BME280;63318;52.406;13.416;2024-01-06T11:02:13;100811.81;;;0.14;90.63
74790;BME280;63318;52.406;13.416;2024-01-06T11:04:43;100807.73;;;0.14;90.53
74790;BME280;63318;52.406;13.416;2024-01-06T11:07:13;100815.79;;;0.14;90.77
74790;BME280;63318;52.406;13.416;2024-01-06T11:09:46;100812.56;;;0.12;90.55
74790;BME280;63318;52.406;13.416;2024-01-06T11:12:13;100813.27;;;0.13;90.91
74790;BME280;63318;52.406;13.416;2024-01-06T11:14:44;100818.41;;;0.12;90.81
74790;BME280;63318;52.406;13.416;2024-01-06T11:17:13;100821.05;;;0.12;90.76
74790;BME280;63318;52.406;13.416;2024-01-06T11:19:46;100820.04;;;0.12;90.47
74790;BME280;63318;52.406;13.416;2024-01-06T11:22:19;100815.29;;;0.12;90.68
74790;BME280;63318;52.406;13.416;2024-01-06T11:24:50;100815.08;;;0.13;90.27
74790;BME280;63318;52.406;13.416;2024-01-06T11:27:25;100814.62;;;0.13;90.52
74790;BME280;63318;52.406;13.416;2024-01-06T11:29:54;100820.29;;;0.15;90.73
74790;BME280;63318;52.406;13.416;2024-01-06T11:32:28;100820.64;;;0.15;90.61
74790;BME280;63318;52.406;13.416;2024-01-06T11:35:05;100821.18;;;0.13;90.49
74790;BME280;63318;52.406;13.416;2024-01-06T11:37:50;100820.55;;;0.13;90.55
74790;BME280;63318;52.406;13.416;2024-01-06T11:40:25;100815.63;;;0.13;90.43
74790;BME280;63318;52.406;13.416;2024-01-06T11:43:01;100812.48;;;0.13;90.60
74790;BME280;63318;52.406;13.416;2024-01-06T11:45:31;100814.65;;;0.13;90.34
74790;BME280;63318;52.406;13.416;2024-01-06T11:48:01;100815.67;;;0.14;90.49
74790;BME280;63318;52.406;13.416;2024-01-06T11:50:32;100816.84;;;0.13;90.60
74790;BME280;63318;52.406;13.416;2024-01-06T11:53:01;100819.71;;;0.14;90.28
74790;BME280;63318;52.406;13.416;2024-01-06T11:55:30;100813.90;;;0.13;90.06
74790;BME280;63318;52.406;13.416;2024-01-06T11:57:58;100813.82;;;0.13;90.30
74790;BME280;63318;52.406;13.416;2024-01-06T12:00:27;100815.27;;;0.12;90.46
74790;BME280;63318;52.406;13.416;2024-01-06T12:02:58;100817.77;;;0.13;90.26
74790;BME280;63318;52.406;13.416;2024-01-06T12:05:27;100819.48;;;0.12;90.26
74790;BME280;63318;52.406;13.416;2024-01-06T12:07:57;100819.29;;;0.13;89.92
74790;BME280;63318;52.406;13.416;2024-01-06T12:10:28;100820.41;;;0.11;90.37
74790;BME280;63318;52.406;13.416;2024-01-06T12:13:00;100817.84;;;0.10;89.91
74790;BME280;63318;52.406;13.416;2024-01-06T12:15:31;100818.72;;;0.09;90.11
74790;BME280;63318;52.406;13.416;2024-01-06T12:18:02;100826.36;;;0.07;89.83
74790;BME280;63318;52.406;13.416;2024-01-06T12:20:31;100825.60;;;0.06;90.03
74790;BME280;63318;52.406;13.416;2024-01-06T12:22:59;100827.11;;;0.06;89.73
74790;BME280;63318;52.406;13.416;2024-01-06T12:25:27;100830.09;;;0.05;90.17
74790;BME280;63318;52.406;13.416;2024-01-06T12:27:56;100829.58;;;0.05;89.97
74790;BME280;63318;52.406;13.416;2024-01-06T12:30:24;100827.03;;;0.05;89.86
74790;BME280;63318;52.406;13.416;2024-01-06T12:32:53;100829.84;;;0.05;89.99
74790;BME280;63318;52.406;13.416;2024-01-06T12:35:22;100837.08;;;0.05;89.67
74790;BME280;63318;52.406;13.416;2024-01-06T12:37:50;100843.16;;;0.04;90.16
74790;BME280;63318;52.406;13.416;2024-01-06T12:40:19;100843.83;;;0.03;89.72
74790;BME280;63318;52.406;13.416;2024-01-06T12:42:47;100847.60;;;0.02;89.97
74790;BME280;63318;52.406;13.416;2024-01-06T12:45:16;100850.06;;;0.01;89.85
74790;BME280;63318;52.406;13.416;2024-01-06T12:47:44;100856.23;;;0.00;90.03
74790;BME280;63318;52.406;13.416;2024-01-06T12:50:12;100853.34;;;-0.02;89.89
74790;BME280;63318;52.406;13.416;2024-01-06T12:52:41;100856.22;;;-0.03;89.22
74790;BME280;63318;52.406;13.416;2024-01-06T12:55:09;100855.74;;;-0.05;89.39
74790;BME280;63318;52.406;13.416;2024-01-06T12:57:38;100862.90;;;-0.06;89.67
74790;BME280;63318;52.406;13.416;2024-01-06T13:00:09;100865.23;;;-0.07;89.38